sensor_id;sensor_type;location;lat;lon;timestamp;pressure;altitude;pressure_sealevel;temperature;humidity
31299;BME280;17927;52.350;13.402;2023-04-25T00:00:53;100206.03;;;12.88;48.46
31299;BME280;17927;52.350;13.402;2023-04-25T00:03:18;100199.75;;;12.88;48.38
31299;BME280;17927;52.350;13.402;2023-04-25T00:05:44;100197.03;;;12.88;48.33
31299;BME280;17927;52.350;13.402;2023-04-25T00:08:10;100198.72;;;12.89;48.00
31299;BME280;17927;52.350;13.402;2023-04-25T00:10:36;100193.31;;;12.89;47.82
31299;BME280;17927;52.350;13.402;2023-04-25T00:13:01;100188.91;;;12.88;47.67
31299;BME280;17927;52.350;13.402;2023-04-25T00:15:27;100185.38;;;12.87;47.84
31299;BME280;17927;52.350;13.402;2023-04-25T00:17:55;100185.53;;;12.86;47.69
31299;BME280;17927;52.350;13.402;2023-04-25T00:20:20;100189.63;;;12.82;47.63
31299;BME280;17927;52.350;13.402;2023-04-25T00:22:45;100197.91;;;12.80;47.80
31299;BME280;17927;52.350;13.402;2023-04-25T00:25:10;100192.81;;;12.77;47.67
31299;BME280;17927;52.350;13.402;2023-04-25T00:27:36;100192.16;;;12.75;47.38
31299;BME280;17927;52.350;13.402;2023-04-25T00:30:01;100192.31;;;12.73;47.35
31299;BME280;17927;52.350;13.402;2023-04-25T00:32:27;100197.91;;;12.72;47.76
31299;BME280;17927;52.350;13.402;2023-04-25T00:34:52;100193.50;;;12.71;47.80
31299;BME280;17927;52.350;13.402;2023-04-25T00:37:18;100192.66;;;12.70;48.00
31299;BME280;17927;52.350;13.402;2023-04-25T00:39:43;100188.44;;;12.68;47.90
31299;BME280;17927;52.350;13.402;2023-04-25T00:42:09;100197.56;;;12.67;47.86
31299;BME280;17927;52.350;13.402;2023-04-25T00:44:35;100196.38;;;12.69;47.86
31299;BME280;17927;52.350;13.402;2023-04-25T00:47:01;100186.59;;;12.68;48.06
31299;BME280;17927;52.350;13.402;2023-04-25T00:49:27;100201.16;;;12.67;48.27
31299;BME280;17927;52.350;13.402;2023-04-25T00:51:52;100192.16;;;12.67;48.51
31299;BME280;17927;52.350;13.402;2023-04-25T00:54:17;100185.53;;;12.69;48.55
31299;BME280;17927;52.350;13.402;2023-04-25T00:56:42;100192.66;;;12.70;48.63
31299;BME280;17927;52.350;13.402;2023-04-25T00:59:10;100182.34;;;12.74;48.33
31299;BME280;17927;52.350;13.402;2023-04-25T01:01:35;100177.59;;;12.76;48.38
31299;BME280;17927;52.350;13.402;2023-04-25T01:04:01;100177.06;;;12.81;48.41
31299;BME280;17927;52.350;13.402;2023-04-25T01:06:26;100180.47;;;12.83;48.37
31299;BME280;17927;52.350;13.402;2023-04-25T01:08:52;100171.31;;;12.84;48.53
31299;BME280;17927;52.350;13.402;2023-04-25T01:11:18;100176.56;;;12.85;48.36
31299;BME280;17927;52.350;13.402;2023-04-25T01:13:43;100175.88;;;12.83;48.37
31299;BME280;17927;52.350;13.402;2023-04-25T01:16:08;100180.28;;;12.84;48.53
31299;BME280;17927;52.350;13.402;2023-04-25T01:18:33;100179.28;;;12.85;48.51
31299;BME280;17927;52.350;13.402;2023-04-25T01:21:09;100180.09;;;12.86;48.47
31299;BME280;17927;52.350;13.402;2023-04-25T01:23:36;100177.38;;;12.86;nan
31299;BME280;17927;52.350;13.402;2023-04-25T01:26:02;100172.97;;;12.85;48.36
31299;BME280;17927;52.350;13.402;2023-04-25T01:28:28;100178.41;;;12.85;48.31
31299;BME280;17927;52.350;13.402;2023-04-25T01:30:54;100181.13;;;12.85;48.54
31299;BME280;17927;52.350;13.402;2023-04-25T01:33:21;100183.00;;;12.84;48.54
31299;BME280;17927;52.350;13.402;2023-04-25T01:35:46;100180.47;;;12.83;48.34
31299;BME280;17927;52.350;13.402;2023-04-25T01:38:12;100177.75;;;12.83;48.36
31299;BME280;17927;52.350;13.402;2023-04-25T01:40:38;100170.78;;;12.80;48.40
31299;BME280;17927;52.350;13.402;2023-04-25T01:43:05;100176.56;;;12.77;48.40
31299;BME280;17927;52.350;13.402;2023-04-25T01:45:30;100178.78;;;12.73;48.48
31299;BME280;17927;52.350;13.402;2023-04-25T01:47:55;100175.56;;;12.70;48.68
31299;BME280;17927;52.350;13.402;2023-04-25T01:50:24;100174.06;;;12.67;48.44
31299;BME280;17927;52.350;13.402;2023-04-25T01:52:49;100177.78;;;12.66;48.54
31299;BME280;17927;52.350;13.402;2023-04-25T01:55:15;100171.69;;;12.64;48.73
31299;BME280;17927;52.350;13.402;2023-04-25T01:57:40;100182.84;;;12.61;48.69
31299;BME280;17927;52.350;13.402;2023-04-25T02:00:06;100174.22;;;12.57;48.70
31299;BME280;17927;52.350;13.402;2023-04-25T02:02:32;100176.41;;;12.54;48.63
31299;BME280;17927;52.350;13.402;2023-04-25T02:04:57;100171.16;;;12.52;48.55
31299;BME280;17927;52.350;13.402;2023-04-25T02:07:22;100181.16;;;12.52;48.61
31299;BME280;17927;52.350;13.402;2023-04-25T02:09:48;100171.34;;;12.51;48.75
31299;BME280;17927;52.350;13.402;2023-04-25T02:12:13;100169.66;;;12.49;48.87
31299;BME280;17927;52.350;13.402;2023-04-25T02:14:38;100182.50;;;12.47;48.86
31299;BME280;17927;52.350;13.402;2023-04-25T02:17:03;100180.81;;;12.46;48.80
31299;BME280;17927;52.350;13.402;2023-04-25T02:19:29;100180.81;;;12.46;49.00
31299;BME280;17927;52.350;13.402;2023-04-25T02:21:54;100175.59;;;12.45;48.79
31299;BME280;17927;52.350;13.402;2023-04-25T02:24:20;100178.44;;;12.43;48.81
31299;BME280;17927;52.350;13.402;2023-04-25T02:26:45;100172.19;;;12.43;48.63
31299;BME280;17927;52.350;13.402;2023-04-25T02:29:12;100176.94;;;12.41;48.96
31299;BME280;17927;52.350;13.402;2023-04-25T02:31:43;100170.84;;;12.39;48.91
31299;BME280;17927;52.350;13.402;2023-04-25T02:34:08;100175.38;;;12.38;48.86
31299;BME280;17927;52.350;13.402;2023-04-25T02:36:33;100169.31;;;12.36;49.05
31299;BME280;17927;52.350;13.402;2023-04-25T02:39:00;100170.16;;;12.37;48.93
31299;BME280;17927;52.350;13.402;2023-04-25T02:41:26;100176.59;;;12.36;48.84
31299;BME280;17927;52.350;13.402;2023-04-25T02:43:52;100171.16;;;12.36;48.95
31299;BME280;17927;52.350;13.402;2023-04-25T02:46:17;100173.53;;;12.39;48.82
31299;BME280;17927;52.350;13.402;2023-04-25T02:48:42;100173.38;;;12.40;49.17
31299;BME280;17927;52.350;13.402;2023-04-25T02:51:08;100173.38;;;12.40;49.19
31299;BME280;17927;52.350;13.402;2023-04-25T02:53:33;100171.50;;;12.41;49.19
31299;BME280;17927;52.350;13.402;2023-04-25T02:55:59;100171.34;;;12.42;48.93
31299;BME280;17927;52.350;13.402;2023-04-25T02:58:24;100166.09;;;12.41;49.00
31299;BME280;17927;52.350;13.402;2023-04-25T03:00:50;100168.63;;;12.42;49.17
31299;BME280;17927;52.350;13.402;2023-04-25T03:03:15;100169.50;;;12.43;49.06
31299;BME280;17927;52.350;13.402;2023-04-25T03:05:43;100170.31;;;12.43;49.25
31299;BME280;17927;52.350;13.402;2023-04-25T03:08:08;100169.50;;;12.43;49.04
31299;BME280;17927;52.350;13.402;2023-04-25T03:10:33;100168.63;;;12.42;48.82
31299;BME280;17927;52.350;13.402;2023-04-25T03:12:59;100157.97;;;12.41;49.05
31299;BME280;17927;52.350;13.402;2023-04-25T03:15:24;100165.09;;;12.42;48.97
31299;BME280;17927;52.350;13.402;2023-04-25T03:17:49;100160.69;;;12.41;49.34
31299;BME280;17927;52.350;13.402;2023-04-25T03:20:14;100168.63;;;12.42;49.44
31299;BME280;17927;52.350;13.402;2023-04-25T03:22:40;100168.63;;;12.42;49.26
31299;BME280;17927;52.350;13.402;2023-04-25T03:25:05;100161.38;;;12.43;49.18
31299;BME280;17927;52.350;13.402;2023-04-25T03:27:30;100166.94;;;12.41;49.12
31299;BME280;17927;52.350;13.402;2023-04-25T03:29:56;100171.50;;;12.41;49.23
31299;BME280;17927;52.350;13.402;2023-04-25T03:32:21;100168.63;;;12.42;48.93
31299;BME280;17927;52.350;13.402;2023-04-25T03:34:46;100169.31;;;12.44;49.20
31299;BME280;17927;52.350;13.402;2023-04-25T03:37:12;100167.28;;;12.46;49.38
31299;BME280;17927;52.350;13.402;2023-04-25T03:39:37;100170.81;;;12.47;49.16
31299;BME280;17927;52.350;13.402;2023-04-25T03:42:03;100171.69;;;12.47;48.94
31299;BME280;17927;52.350;13.402;2023-04-25T03:44:28;100171.69;;;12.47;49.12
31299;BME280;17927;52.350;13.402;2023-04-25T03:46:54;100168.13;;;12.47;49.06
31299;BME280;17927;52.350;13.402;2023-04-25T03:49:19;100173.53;;;12.47;49.15
31299;BME280;17927;52.350;13.402;2023-04-25T03:51:44;100181.66;;;12.47;49.25
31299;BME280;17927;52.350;13.402;2023-04-25T03:54:09;100178.94;;;12.47;49.26
31299;BME280;17927;52.350;13.402;2023-04-25T03:56:35;100183.53;;;12.46;49.15
31299;BME280;17927;52.350;13.402;2023-04-25T03:59:00;100185.56;;;12.44;49.49
31299;BME280;17927;52.350;13.402;2023-04-25T04:01:25;100182.16;;;12.42;49.32
31299;BME280;17927;52.350;13.402;2023-04-25T04:03:50;100188.59;;;12.41;49.51
31299;BME280;17927;52.350;13.402;2023-04-25T04:06:16;100195.91;;;12.41;49.58
31299;BME280;17927;52.350;13.402;2023-04-25T04:08:41;100197.91;;;12.39;49.53
31299;BME280;17927;52.350;13.402;2023-04-25T04:11:07;100196.91;;;12.40;49.38
31299;BME280;17927;52.350;13.402;2023-04-25T04:13:32;100202.47;;;12.38;49.44
31299;BME280;17927;52.350;13.402;2023-04-25T04:15:57;100197.91;;;12.39;49.64
31299;BME280;17927;52.350;13.402;2023-04-25T04:18:23;100197.91;;;12.39;49.45
31299;BME280;17927;52.350;13.402;2023-04-25T04:20:48;100207.25;;;12.36;49.34
31299;BME280;17927;52.350;13.402;2023-04-25T04:23:13;100199.13;;;12.36;49.53
31299;BME280;17927;52.350;13.402;2023-04-25T04:25:39;100204.69;;;12.34;49.65
31299;BME280;17927;52.350;13.402;2023-04-25T04:28:05;100208.25;;;12.35;49.72
31299;BME280;17927;52.350;13.402;2023-04-25T04:30:31;100208.75;;;12.39;49.69
31299;BME280;17927;52.350;13.402;2023-04-25T04:32:57;100211.97;;;12.42;49.28
31299;BME280;17927;52.350;13.402;2023-04-25T04:35:23;100207.91;;;12.46;49.66
31299;BME280;17927;52.350;13.402;2023-04-25T04:37:48;100215.72;;;12.49;49.64
31299;BME280;17927;52.350;13.402;2023-04-25T04:40:14;100205.56;;;12.52;49.55
31299;BME280;17927;52.350;13.402;2023-04-25T04:42:43;100211.63;;;12.54;49.65
31299;BME280;17927;52.350;13.402;2023-04-25T04:45:10;100212.31;;;12.56;49.71
31299;BME280;17927;52.350;13.402;2023-04-25T04:47:36;100216.38;;;12.60;49.53
31299;BME280;17927;52.350;13.402;2023-04-25T04:50:05;100212.31;;;12.64;49.57
31299;BME280;17927;52.350;13.402;2023-04-25T04:52:33;100210.28;;;12.66;49.36
31299;BME280;17927;52.350;13.402;2023-04-25T04:54:58;100219.75;;;12.70;49.64
31299;BME280;17927;52.350;13.402;2023-04-25T04:57:24;100211.47;;;12.72;49.68
31299;BME280;17927;52.350;13.402;2023-04-25T04:59:49;100216.38;;;12.76;49.54
31299;BME280;17927;52.350;13.402;2023-04-25T05:02:15;100214.34;;;12.78;49.83
31299;BME280;17927;52.350;13.402;2023-04-25T05:04:40;100219.56;;;12.80;49.56
31299;BME280;17927;52.350;13.402;2023-04-25T05:07:05;100217.72;;;12.81;49.66
31299;BME280;17927;52.350;13.402;2023-04-25T05:09:31;100212.81;;;12.84;49.57
31299;BME280;17927;52.350;13.402;2023-04-25T05:11:56;100214.31;;;12.87;49.71
31299;BME280;17927;52.350;13.402;2023-04-25T05:14:22;100212.28;;;12.89;49.84
31299;BME280;17927;52.350;13.402;2023-04-25T05:16:48;100214.84;;;12.90;49.66
31299;BME280;17927;52.350;13.402;2023-04-25T05:19:13;100224.31;;;12.94;49.85
31299;BME280;17927;52.350;13.402;2023-04-25T05:21:39;100217.72;;;12.97;49.50
31299;BME280;17927;52.350;13.402;2023-04-25T05:24:04;100226.53;;;12.99;49.53
31299;BME280;17927;52.350;13.402;2023-04-25T05:26:29;100226.16;;;13.02;49.51
31299;BME280;17927;52.350;13.402;2023-04-25T05:28:58;100226.84;;;13.04;49.51
31299;BME280;17927;52.350;13.402;2023-04-25T05:31:23;100219.38;;;13.06;49.67
31299;BME280;17927;52.350;13.402;2023-04-25T05:33:49;100227.34;;;13.08;49.78
31299;BME280;17927;52.350;13.402;2023-04-25T05:36:14;100229.88;;;13.09;49.44
31299;BME280;17927;52.350;13.402;2023-04-25T05:38:39;100225.16;;;13.12;49.29
31299;BME280;17927;52.350;13.402;2023-04-25T05:41:05;100218.69;;;13.13;49.59
31299;BME280;17927;52.350;13.402;2023-04-25T05:43:30;100227.16;;;13.18;49.60
31299;BME280;17927;52.350;13.402;2023-04-25T05:45:55;100228.50;;;13.22;49.69
31299;BME280;17927;52.350;13.402;2023-04-25T05:48:21;100231.72;;;13.25;49.68
31299;BME280;17927;52.350;13.402;2023-04-25T05:50:46;100232.91;;;13.31;49.64
31299;BME280;17927;52.350;13.402;2023-04-25T05:53:11;100233.41;;;13.35;49.53
31299;BME280;17927;52.350;13.402;2023-04-25T05:55:36;100240.31;;;13.37;49.61
31299;BME280;17927;52.350;13.402;2023-04-25T05:58:02;100235.28;;;13.43;49.65
31299;BME280;17927;52.350;13.402;2023-04-25T06:00:27;100245.78;;;13.46;49.55
31299;BME280;17927;52.350;13.402;2023-04-25T06:02:52;100249.13;;;13.48;49.39
31299;BME280;17927;52.350;13.402;2023-04-25T06:05:17;100251.69;;;13.49;49.56
31299;BME280;17927;52.350;13.402;2023-04-25T06:07:43;100250.50;;;13.52;49.54
31299;BME280;17927;52.350;13.402;2023-04-25T06:10:08;100249.13;;;13.56;49.44
31299;BME280;17927;52.350;13.402;2023-04-25T06:12:34;100251.50;;;13.59;49.48
31299;BME280;17927;52.350;13.402;2023-04-25T06:15:00;100246.56;;;13.63;49.41
31299;BME280;17927;52.350;13.402;2023-04-25T06:17:25;100254.69;;;13.63;49.39
31299;BME280;17927;52.350;13.402;2023-04-25T06:19:50;100253.69;;;13.64;49.46
31299;BME280;17927;52.350;13.402;2023-04-25T06:22:15;100259.94;;;13.64;49.23
31299;BME280;17927;52.350;13.402;2023-04-25T06:24:41;100256.19;;;13.65;49.27
31299;BME280;17927;52.350;13.402;2023-04-25T06:27:06;100253.16;;;13.68;49.49
31299;BME280;17927;52.350;13.402;2023-04-25T06:29:31;100258.03;;;13.73;49.47
31299;BME280;17927;52.350;13.402;2023-04-25T06:31:57;100262.78;;;13.79;49.30
31299;BME280;17927;52.350;13.402;2023-04-25T06:34:22;100252.41;;;13.83;49.22
31299;BME280;17927;52.350;13.402;2023-04-25T06:36:47;100260.00;;;13.88;49.60
31299;BME280;17927;52.350;13.402;2023-04-25T06:39:13;100251.53;;;13.91;49.29
31299;BME280;17927;52.350;13.402;2023-04-25T06:41:38;100263.72;;;13.95;49.26
31299;BME280;17927;52.350;13.402;2023-04-25T06:44:03;100253.34;;;13.98;49.26
31299;BME280;17927;52.350;13.402;2023-04-25T06:46:28;100265.38;;;14.04;49.31
31299;BME280;17927;52.350;13.402;2023-04-25T06:48:54;100268.22;;;14.11;49.12
31299;BME280;17927;52.350;13.402;2023-04-25T06:51:19;100264.78;;;14.17;49.36
31299;BME280;17927;52.350;13.402;2023-04-25T06:53:44;100262.56;;;14.21;49.00
31299;BME280;17927;52.350;13.402;2023-04-25T06:56:09;100267.84;;;14.22;49.03
31299;BME280;17927;52.350;13.402;2023-04-25T06:58:35;100267.44;;;14.25;48.78
31299;BME280;17927;52.350;13.402;2023-04-25T07:01:00;100262.00;;;14.25;48.93
31299;BME280;17927;52.350;13.402;2023-04-25T07:03:25;100263.72;;;14.26;48.89
31299;BME280;17927;52.350;13.402;2023-04-25T07:05:50;100268.13;;;14.27;48.71
31299;BME280;17927;52.350;13.402;2023-04-25T07:08:16;100267.97;;;14.29;48.71
31299;BME280;17927;52.350;13.402;2023-04-25T07:10:41;100272.38;;;14.30;48.57
31299;BME280;17927;52.350;13.402;2023-04-25T07:13:07;100277.59;;;14.31;48.68
31299;BME280;17927;52.350;13.402;2023-04-25T07:15:32;100270.31;;;14.32;48.64
31299;BME280;17927;52.350;13.402;2023-04-25T07:17:57;100275.56;;;14.34;48.86
31299;BME280;17927;52.350;13.402;2023-04-25T07:20:23;100276.25;;;14.36;48.62
31299;BME280;17927;52.350;13.402;2023-04-25T07:22:48;100283.16;;;14.38;48.68
31299;BME280;17927;52.350;13.402;2023-04-25T07:25:15;100283.00;;;14.40;48.45
31299;BME280;17927;52.350;13.402;2023-04-25T07:27:40;100282.81;;;14.41;48.65
31299;BME280;17927;52.350;13.402;2023-04-25T07:30:06;100287.91;;;14.44;48.79
31299;BME280;17927;52.350;13.402;2023-04-25T07:32:31;100293.16;;;14.46;48.53
31299;BME280;17927;52.350;13.402;2023-04-25T07:34:57;100285.84;;;14.46;48.31
31299;BME280;17927;52.350;13.402;2023-04-25T07:37:22;100287.03;;;14.44;48.51
31299;BME280;17927;52.350;13.402;2023-04-25T07:39:48;100299.31;;;14.40;48.59
31299;BME280;17927;52.350;13.402;2023-04-25T07:42:13;100308.16;;;14.34;48.64
31299;BME280;17927;52.350;13.402;2023-04-25T07:44:38;100308.88;;;14.27;48.82
31299;BME280;17927;52.350;13.402;2023-04-25T07:47:06;100319.25;;;14.24;48.44
31299;BME280;17927;52.350;13.402;2023-04-25T07:49:36;100322.50;;;14.19;48.48
31299;BME280;17927;52.350;13.402;2023-04-25T07:52:05;100324.56;;;14.17;48.57
31299;BME280;17927;52.350;13.402;2023-04-25T07:54:34;100325.75;;;14.14;48.66
31299;BME280;17927;52.350;13.402;2023-04-25T07:56:59;100334.59;;;14.16;48.94
31299;BME280;17927;52.350;13.402;2023-04-25T07:59:24;100331.50;;;14.20;48.70
31299;BME280;17927;52.350;13.402;2023-04-25T08:01:50;100328.25;;;14.24;48.57
31299;BME280;17927;52.350;13.402;2023-04-25T08:04:15;100327.88;;;14.27;48.73
31299;BME280;17927;52.350;13.402;2023-04-25T08:06:41;100335.34;;;14.34;48.61
31299;BME280;17927;52.350;13.402;2023-04-25T08:09:06;100332.75;;;14.40;nan
31299;BME280;17927;52.350;13.402;2023-04-25T08:11:33;100343.75;;;14.47;48.69
31299;BME280;17927;52.350;13.402;2023-04-25T08:13:58;100330.97;;;14.56;48.86
31299;BME280;17927;52.350;13.402;2023-04-25T08:16:24;100341.75;;;14.64;48.46
31299;BME280;17927;52.350;13.402;2023-04-25T08:18:50;100347.19;;;14.72;48.74
31299;BME280;17927;52.350;13.402;2023-04-25T08:21:15;100348.34;;;14.78;48.37
31299;BME280;17927;52.350;13.402;2023-04-25T08:23:41;100354.09;;;14.83;48.27
31299;BME280;17927;52.350;13.402;2023-04-25T08:26:06;100353.56;;;14.88;48.15
31299;BME280;17927;52.350;13.402;2023-04-25T08:28:32;100353.19;;;14.91;47.94
31299;BME280;17927;52.350;13.402;2023-04-25T08:30:57;100363.03;;;14.92;47.88
31299;BME280;17927;52.350;13.402;2023-04-25T08:33:23;100367.47;;;14.93;47.44
31299;BME280;17927;52.350;13.402;2023-04-25T08:35:48;100367.47;;;14.93;47.57
31299;BME280;17927;52.350;13.402;2023-04-25T08:38:13;100369.16;;;14.94;47.62
31299;BME280;17927;52.350;13.402;2023-04-25T08:40:39;100366.25;;;14.96;47.73
31299;BME280;17927;52.350;13.402;2023-04-25T08:43:06;100368.25;;;15.02;47.61
31299;BME280;17927;52.350;13.402;2023-04-25T08:45:38;100376.69;;;15.07;47.68
31299;BME280;17927;52.350;13.402;2023-04-25T08:48:05;100381.41;;;15.13;47.63
31299;BME280;17927;52.350;13.402;2023-04-25T08:50:31;100382.56;;;15.19;47.45
31299;BME280;17927;52.350;13.402;2023-04-25T08:52:58;100385.59;;;15.24;47.52
31299;BME280;17927;52.350;13.402;2023-04-25T08:55:27;100391.13;;;15.31;47.40
31299;BME280;17927;52.350;13.402;2023-04-25T08:57:54;100396.69;;;15.37;47.14
31299;BME280;17927;52.350;13.402;2023-04-25T09:00:19;100390.69;;;15.42;46.92
31299;BME280;17927;52.350;13.402;2023-04-25T09:02:46;100392.69;;;15.48;46.47
31299;BME280;17927;52.350;13.402;2023-04-25T09:05:12;100395.03;;;15.51;46.33
31299;BME280;17927;52.350;13.402;2023-04-25T09:07:38;100395.69;;;15.53;45.53
31299;BME280;17927;52.350;13.402;2023-04-25T09:10:04;100399.06;;;15.56;45.26
31299;BME280;17927;52.350;13.402;2023-04-25T09:12:29;100403.69;;;15.55;44.39
31299;BME280;17927;52.350;13.402;2023-04-25T09:15:12;100406.88;;;15.59;44.29
31299;BME280;17927;52.350;13.402;2023-04-25T09:17:37;100415.72;;;15.61;44.56
31299;BME280;17927;52.350;13.402;2023-04-25T09:20:11;100410.53;;;15.66;44.21
31299;BME280;17927;52.350;13.402;2023-04-25T09:22:37;100412.72;;;15.71;44.00
31299;BME280;17927;52.350;13.402;2023-04-25T09:25:07;100415.06;;;15.74;43.67
31299;BME280;17927;52.350;13.402;2023-04-25T09:27:32;100414.03;;;15.75;43.67
31299;BME280;17927;52.350;13.402;2023-04-25T09:29:58;100429.63;;;15.81;43.76
31299;BME280;17927;52.350;13.402;2023-04-25T09:32:27;100424.97;;;15.90;43.62
31299;BME280;17927;52.350;13.402;2023-04-25T09:34:54;100437.31;;;16.01;43.17
31299;BME280;17927;52.350;13.402;2023-04-25T09:37:21;100424.44;;;16.09;43.55
31299;BME280;17927;52.350;13.402;2023-04-25T09:39:52;100430.66;;;16.18;43.05
31299;BME280;17927;52.350;13.402;2023-04-25T09:42:22;100437.88;;;16.26;42.89
31299;BME280;17927;52.350;13.402;2023-04-25T09:44:47;100430.84;;;16.32;43.15
31299;BME280;17927;52.350;13.402;2023-04-25T09:47:15;100432.63;;;16.39;42.56
31299;BME280;17927;52.350;13.402;2023-04-25T09:49:46;100437.69;;;16.42;41.84
31299;BME280;17927;52.350;13.402;2023-04-25T09:52:17;100439.34;;;16.43;41.51
31299;BME280;17927;52.350;13.402;2023-04-25T09:54:43;100434.56;;;16.46;41.98
31299;BME280;17927;52.350;13.402;2023-04-25T09:57:16;100429.41;;;16.51;42.12
31299;BME280;17927;52.350;13.402;2023-04-25T09:59:46;100427.63;;;16.58;41.81
31299;BME280;17927;52.350;13.402;2023-04-25T10:02:14;100438.59;;;16.65;41.89
31299;BME280;17927;52.350;13.402;2023-04-25T10:04:40;100427.94;;;16.70;41.63
31299;BME280;17927;52.350;13.402;2023-04-25T10:07:07;100437.22;;;16.75;41.10
31299;BME280;17927;52.350;13.402;2023-04-25T10:09:33;100430.56;;;16.78;41.27
31299;BME280;17927;52.350;13.402;2023-04-25T10:12:02;100433.09;;;16.80;40.54
31299;BME280;17927;52.350;13.402;2023-04-25T10:14:29;100436.47;;;16.82;40.76
31299;BME280;17927;52.350;13.402;2023-04-25T10:16:55;100437.97;;;16.84;40.94
31299;BME280;17927;52.350;13.402;2023-04-25T10:19:21;100438.91;;;16.92;40.75
31299;BME280;17927;52.350;13.402;2023-04-25T10:21:53;100433.56;;;16.98;40.25
31299;BME280;17927;52.350;13.402;2023-04-25T10:24:20;100448.31;;;17.04;40.30
31299;BME280;17927;52.350;13.402;2023-04-25T10:26:47;100446.44;;;17.04;39.85
31299;BME280;17927;52.350;13.402;2023-04-25T10:29:21;100443.06;;;17.02;39.73
31299;BME280;17927;52.350;13.402;2023-04-25T10:31:46;100452.66;;;16.98;39.87
31299;BME280;17927;52.350;13.402;2023-04-25T10:34:12;100458.66;;;16.94;39.56
31299;BME280;17927;52.350;13.402;2023-04-25T10:36:37;100460.06;;;16.89;39.37
31299;BME280;17927;52.350;13.402;2023-04-25T10:39:05;100451.44;;;16.86;39.28
31299;BME280;17927;52.350;13.402;2023-04-25T10:41:47;100461.69;;;16.84;39.03
31299;BME280;17927;52.350;13.402;2023-04-25T10:44:13;100452.84;;;16.82;39.33
31299;BME280;17927;52.350;13.402;2023-04-25T10:46:39;100458.97;;;16.84;38.88
31299;BME280;17927;52.350;13.402;2023-04-25T10:49:04;100455.19;;;16.85;39.13
31299;BME280;17927;52.350;13.402;2023-04-25T10:51:34;100459.63;;;16.86;38.53
31299;BME280;17927;52.350;13.402;2023-04-25T10:54:03;100465.25;;;16.84;38.69
31299;BME280;17927;52.350;13.402;2023-04-25T10:56:31;100471.75;;;16.83;38.41
31299;BME280;17927;52.350;13.402;2023-04-25T11:01:41;100471.28;;;16.80;38.28
31299;BME280;17927;52.350;13.402;2023-04-25T11:04:19;100477.09;;;16.77;38.14
31299;BME280;17927;52.350;13.402;2023-04-25T11:09:23;100473.66;;;16.68;37.64
31299;BME280;17927;52.350;13.402;2023-04-25T11:11:55;100475.25;;;16.62;37.49
31299;BME280;17927;52.350;13.402;2023-04-25T11:14:21;100474.59;;;16.60;37.72
31299;BME280;17927;52.350;13.402;2023-04-25T11:16:47;100484.88;;;16.58;37.81
31299;BME280;17927;52.350;13.402;2023-04-25T11:19:12;100475.81;;;16.57;38.06
31299;BME280;17927;52.350;13.402;2023-04-25T11:21:38;100483.81;;;16.59;38.23
31299;BME280;17927;52.350;13.402;2023-04-25T11:24:04;100489.53;;;16.64;38.29
31299;BME280;17927;52.350;13.402;2023-04-25T11:26:30;100494.63;;;16.67;38.05
31299;BME280;17927;52.350;13.402;2023-04-25T11:28:59;100485.22;;;16.70;38.23
31299;BME280;17927;52.350;13.402;2023-04-25T11:31:25;100491.31;;;16.72;38.09
31299;BME280;17927;52.350;13.402;2023-04-25T11:33:53;100494.91;;;16.72;37.60
31299;BME280;17927;52.350;13.402;2023-04-25T11:36:18;100503.09;;;16.72;37.79
31299;BME280;17927;52.350;13.402;2023-04-25T11:38:43;100505.63;;;16.74;37.55
31299;BME280;17927;52.350;13.402;2023-04-25T11:41:09;100505.25;;;16.77;37.91
31299;BME280;17927;52.350;13.402;2023-04-25T11:43:34;100515.97;;;16.79;37.34
31299;BME280;17927;52.350;13.402;2023-04-25T11:45:59;100518.03;;;16.77;37.64
31299;BME280;17927;52.350;13.402;2023-04-25T11:48:25;100520.66;;;16.70;37.29
31299;BME280;17927;52.350;13.402;2023-04-25T11:50:50;100523.50;;;16.62;37.34
31299;BME280;17927;52.350;13.402;2023-04-25T11:53:17;100525.09;;;16.56;37.33
31299;BME280;17927;52.350;13.402;2023-04-25T11:55:43;100531.97;;;16.52;37.55
31299;BME280;17927;52.350;13.402;2023-04-25T11:58:08;100527.06;;;16.47;37.79
31299;BME280;17927;52.350;13.402;2023-04-25T12:00:34;100537.13;;;16.47;37.91
31299;BME280;17927;52.350;13.402;2023-04-25T12:02:59;100533.72;;;16.44;37.20
31299;BME280;17927;52.350;13.402;2023-04-25T12:05:30;100534.97;;;16.42;37.29
31299;BME280;17927;52.350;13.402;2023-04-25T12:07:56;100543.13;;;16.42;37.15
31299;BME280;17927;52.350;13.402;2023-04-25T12:10:21;100534.75;;;16.43;36.83
31299;BME280;17927;52.350;13.402;2023-04-25T12:12:49;100528.28;;;16.44;36.74
31299;BME280;17927;52.350;13.402;2023-04-25T12:15:16;100537.97;;;16.47;36.68
31299;BME280;17927;52.350;13.402;2023-04-25T12:17:45;100538.44;;;16.51;36.87
31299;BME280;17927;52.350;13.402;2023-04-25T12:20:14;100538.75;;;16.56;36.88
31299;BME280;17927;52.350;13.402;2023-04-25T12:22:44;100543.44;;;16.62;36.73
31299;BME280;17927;52.350;13.402;2023-04-25T12:25:33;100539.59;;;16.71;36.61
31299;BME280;17927;52.350;13.402;2023-04-25T12:28:16;100540.59;;;16.85;36.70
31299;BME280;17927;52.350;13.402;2023-04-25T12:31:11;100529.88;;;16.99;37.37
31299;BME280;17927;52.350;13.402;2023-04-25T12:33:37;100544.25;;;17.08;36.79
31299;BME280;17927;52.350;13.402;2023-04-25T12:36:04;100545.19;;;17.15;36.30
31299;BME280;17927;52.350;13.402;2023-04-25T12:38:36;100542.25;;;17.16;36.14
31299;BME280;17927;52.350;13.402;2023-04-25T12:41:02;100546.69;;;17.17;36.05